createdAt,value
2022-11-02T00:02:11.350Z,11.55
2022-11-02T00:04:44.524Z,7.30
2022-11-02T00:10:02.453Z,24.73
2022-11-02T00:13:10.680Z,7.40
2022-11-02T00:15:37.786Z,6.53
2022-11-02T00:18:55.886Z,5.78
2022-11-02T00:21:24.745Z,8.13
2022-11-02T00:23:52.972Z,10.30
2022-11-02T00:26:50.584Z,8.60
2022-11-02T00:29:17.645Z,4.72
2022-11-02T00:31:44.595Z,13.68
2022-11-02T00:34:23.008Z,7.57
2022-11-02T00:39:45.854Z,6.32
2022-11-02T00:42:13.063Z,5.85
2022-11-02T00:44:41.074Z,8.02
2022-11-02T00:47:28.330Z,6.90
2022-11-02T00:49:55.238Z,9.48
2022-11-02T01:01:09.185Z,6.68
2022-11-02T01:06:57.003Z,3.65
2022-11-02T01:09:28.029Z,4.72
2022-11-02T01:11:54.991Z,5.03
2022-11-02T01:14:22.426Z,5.18
2022-11-02T01:16:53.429Z,4.25
2022-11-02T01:19:21.052Z,3.70
2022-11-02T01:21:50.225Z,5.25
2022-11-02T01:24:20.892Z,12.77
2022-11-02T01:26:57.149Z,6.75
2022-11-02T01:29:24.071Z,12.05
2022-11-02T01:31:53.561Z,8.27
2022-11-02T01:34:29.334Z,7.47
2022-11-02T01:37:02.540Z,8.23
2022-11-02T01:39:33.049Z,6.40
2022-11-02T01:42:00.041Z,5.63
2022-11-02T01:44:26.938Z,12.52
2022-11-02T01:47:19.994Z,7.55
2022-11-02T01:49:50.967Z,8.10
2022-11-02T01:52:22.563Z,14.68
2022-11-02T01:55:00.447Z,9.20
2022-11-02T01:57:29.755Z,9.88
2022-11-02T01:59:59.890Z,7.70
2022-11-02T02:02:28.321Z,4.85
2022-11-02T02:05:07.062Z,8.65
2022-11-02T02:07:37.126Z,7.88
2022-11-02T02:10:05.633Z,6.25
2022-11-02T02:12:36.399Z,6.25
2022-11-02T02:15:03.933Z,5.22
2022-11-02T02:18:02.299Z,8.60
2022-11-02T02:20:34.474Z,5.28
2022-11-02T02:23:13.022Z,5.78
2022-11-02T02:26:18.453Z,6.50
2022-11-02T02:28:53.377Z,8.05
2022-11-02T02:31:32.757Z,5.43
2022-11-02T02:34:25.205Z,5.95
2022-11-02T02:37:10.155Z,14.68
2022-11-02T02:39:43.464Z,10.20
2022-11-02T02:42:24.520Z,10.18
2022-11-02T02:45:02.621Z,4.90
2022-11-02T02:47:33.688Z,8.95
2022-11-02T02:50:16.081Z,12.35
2022-11-02T02:52:47.468Z,9.15
2022-11-02T02:55:19.200Z,9.43
2022-11-02T02:57:47.147Z,11.13
2022-11-02T03:00:17.577Z,9.80
2022-11-02T03:03:03.423Z,6.60
2022-11-02T03:05:35.085Z,11.32
2022-11-02T03:08:16.035Z,10.35
2022-11-02T03:10:52.937Z,8.73
2022-11-02T03:13:38.327Z,7.78
2022-11-02T03:16:42.423Z,6.88
2022-11-02T03:19:31.972Z,10.02
2022-11-02T03:22:05.262Z,6.35
2022-11-02T03:24:47.748Z,11.98
2022-11-02T03:27:47.597Z,6.40
2022-11-02T03:30:24.316Z,8.82
2022-11-02T03:33:16.922Z,6.18
2022-11-02T03:36:03.943Z,10.48
2022-11-02T03:38:53.335Z,4.03
2022-11-02T03:41:23.456Z,5.75
2022-11-02T03:43:55.478Z,6.28
2022-11-02T03:46:24.002Z,6.55
2022-11-02T03:48:52.947Z,4.45
2022-11-02T03:51:24.089Z,9.93
2022-11-02T03:54:04.885Z,13.45
2022-11-02T03:56:39.237Z,4.05
2022-11-02T03:59:06.408Z,6.90
2022-11-02T04:01:39.399Z,7.63
2022-11-02T04:04:06.509Z,6.22
2022-11-02T04:06:34.738Z,7.97
2022-11-02T04:09:02.008Z,8.20
2022-11-02T04:11:53.873Z,6.47
2022-11-02T04:14:39.273Z,6.72
2022-11-02T04:20:18.624Z,7.43
2022-11-02T04:23:04.792Z,10.05
2022-11-02T04:25:31.852Z,5.43
2022-11-02T04:28:14.704Z,11.80
2022-11-02T04:30:51.425Z,5.07
2022-11-02T04:33:33.048Z,6.60
2022-11-02T04:36:18.805Z,21.15
2022-11-02T04:38:51.896Z,29.15
2022-11-02T04:41:43.548Z,26.38
2022-11-02T04:44:19.581Z,28.58
2022-11-02T04:46:55.730Z,18.85
2022-11-02T04:49:27.433Z,32.58
2022-11-02T04:51:55.046Z,35.40
2022-11-02T04:54:22.082Z,35.47
2022-11-02T04:56:55.113Z,34.05
2022-11-02T04:59:23.999Z,25.75
2022-11-02T05:01:51.034Z,21.13
2022-11-02T05:04:18.123Z,13.52
2022-11-02T05:06:46.788Z,9.50
2022-11-02T05:09:13.949Z,13.13
2022-11-02T05:11:44.611Z,16.33
2022-11-02T05:14:11.867Z,5.78
2022-11-02T05:16:38.974Z,13.05
2022-11-02T05:19:09.996Z,9.98
2022-11-02T05:21:39.370Z,8.68
2022-11-02T05:24:07.095Z,12.82
2022-11-02T05:26:34.763Z,18.08
2022-11-02T05:29:02.832Z,8.98
2022-11-02T05:31:31.449Z,9.57
2022-11-02T05:33:59.025Z,12.85
2022-11-02T05:36:27.725Z,9.63
2022-11-02T05:38:55.631Z,18.52
2022-11-02T05:41:24.885Z,12.25
2022-11-02T05:43:55.232Z,7.40
2022-11-02T05:46:24.438Z,12.20
2022-11-02T05:48:51.359Z,12.73
2022-11-02T05:51:18.331Z,13.90
2022-11-02T05:53:45.238Z,9.07
2022-11-02T05:56:12.329Z,10.75
2022-11-02T05:58:39.486Z,13.82
2022-11-02T06:01:09.997Z,11.77
2022-11-02T06:03:37.783Z,9.05
2022-11-02T06:06:10.579Z,23.73
2022-11-02T06:08:39.115Z,13.02
2022-11-02T06:11:11.781Z,16.33
2022-11-02T06:13:41.317Z,9.68
2022-11-02T06:16:11.513Z,10.30
2022-11-02T06:18:39.547Z,11.98
2022-11-02T06:21:06.926Z,9.68
2022-11-02T06:23:34.436Z,10.65
2022-11-02T06:26:02.554Z,16.52
2022-11-02T06:28:31.036Z,9.23
2022-11-02T06:30:58.365Z,12.05
2022-11-02T06:33:26.566Z,6.88
2022-11-02T06:35:54.812Z,12.75
2022-11-02T06:38:22.329Z,8.27
2022-11-02T06:41:02.479Z,10.48
2022-11-02T06:43:30.326Z,12.18
2022-11-02T06:45:58.727Z,11.27
2022-11-02T06:48:32.956Z,9.27
2022-11-02T06:51:01.598Z,12.63
2022-11-02T06:53:28.621Z,8.07
2022-11-02T06:55:57.052Z,10.15
2022-11-02T06:58:25.054Z,12.43
2022-11-02T07:00:58.557Z,10.23
2022-11-02T07:03:25.646Z,14.38
2022-11-02T07:05:53.526Z,13.13
2022-11-02T07:08:21.672Z,12.88
2022-11-02T07:10:49.310Z,19.05
2022-11-02T07:13:16.661Z,15.20
2022-11-02T07:15:43.605Z,14.50
2022-11-02T07:18:10.635Z,13.73
2022-11-02T07:20:39.071Z,18.45
2022-11-02T07:23:06.967Z,19.10
2022-11-02T07:25:34.346Z,10.52
2022-11-02T07:28:04.190Z,11.85
2022-11-02T07:30:34.417Z,14.23
2022-11-02T07:33:01.956Z,7.85
2022-11-02T07:35:29.170Z,13.00
2022-11-02T07:38:04.829Z,12.00
2022-11-02T07:40:34.151Z,10.07
2022-11-02T07:43:01.602Z,9.82
2022-11-02T07:45:38.820Z,11.35
2022-11-02T07:48:05.922Z,11.15
2022-11-02T07:50:32.860Z,9.00
2022-11-02T07:53:01.647Z,10.15
2022-11-02T07:55:31.094Z,8.45
2022-11-02T07:58:16.790Z,9.98
2022-11-02T08:00:44.069Z,8.32
2022-11-02T08:03:15.073Z,6.30
2022-11-02T08:05:48.781Z,11.52
2022-11-02T08:08:23.634Z,9.15
2022-11-02T08:10:52.132Z,8.18
2022-11-02T08:13:24.151Z,13.05
2022-11-02T08:15:54.511Z,12.23
2022-11-02T08:18:25.003Z,9.95
2022-11-02T08:20:52.596Z,13.23
2022-11-02T08:23:20.887Z,10.95
2022-11-02T08:25:49.701Z,8.05
2022-11-02T08:28:22.919Z,9.60
2022-11-02T08:30:50.031Z,7.75
2022-11-02T08:33:18.629Z,12.27
2022-11-02T08:35:52.903Z,21.17
2022-11-02T08:38:22.729Z,27.90
2022-11-02T08:40:52.772Z,28.10
2022-11-02T08:43:22.466Z,26.90
2022-11-02T08:48:36.582Z,12.30
2022-11-02T08:51:05.708Z,10.18
2022-11-02T08:53:32.698Z,13.73
2022-11-02T08:55:59.686Z,13.25
2022-11-02T08:58:26.809Z,7.68
2022-11-02T09:00:54.425Z,13.88
2022-11-02T09:03:27.158Z,9.80
2022-11-02T09:06:02.742Z,11.48
2022-11-02T09:08:32.528Z,14.52
2022-11-02T09:11:03.543Z,13.27
2022-11-02T09:13:35.321Z,10.23
2022-11-02T09:16:02.971Z,6.07
2022-11-02T09:18:37.579Z,10.00
2022-11-02T09:21:10.995Z,7.22
2022-11-02T09:23:37.979Z,14.20
2022-11-02T09:26:04.917Z,8.55
2022-11-02T09:28:49.917Z,8.98
2022-11-02T09:31:16.771Z,6.18
2022-11-02T09:33:43.663Z,6.82
2022-11-02T09:36:11.403Z,10.18
2022-11-02T09:38:38.441Z,6.68
2022-11-02T09:41:11.541Z,11.07
2022-11-02T09:44:04.667Z,10.90
2022-11-02T09:46:40.363Z,8.32
2022-11-02T09:49:23.994Z,6.97
2022-11-02T09:51:53.470Z,6.93
2022-11-02T09:54:26.245Z,11.50
2022-11-02T09:56:59.233Z,8.15
2022-11-02T09:59:47.687Z,9.32
2022-11-02T10:02:44.952Z,8.95
2022-11-02T10:06:06.102Z,9.70
2022-11-02T10:08:40.318Z,8.73
2022-11-02T10:11:32.382Z,9.65
2022-11-02T10:14:08.796Z,4.30
2022-11-02T10:16:44.990Z,4.85
2022-11-02T10:19:16.181Z,7.72
2022-11-02T10:21:47.662Z,6.43
2022-11-02T10:24:26.091Z,6.63
2022-11-02T10:27:13.877Z,7.72
2022-11-02T10:29:48.652Z,6.30
2022-11-02T10:32:16.497Z,7.70
2022-11-02T10:34:54.146Z,4.45
2022-11-02T10:37:46.314Z,4.40
2022-11-02T10:40:42.364Z,4.88
2022-11-02T10:43:34.042Z,8.82
2022-11-02T10:46:27.169Z,5.53
2022-11-02T10:49:13.482Z,11.27
2022-11-02T10:51:41.292Z,4.88
2022-11-02T10:54:18.649Z,6.47
2022-11-02T10:56:51.221Z,6.78
2022-11-02T10:59:20.434Z,5.78
2022-11-02T11:02:05.313Z,4.88
2022-11-02T11:04:36.455Z,6.18
2022-11-02T11:07:14.715Z,5.03
2022-11-02T11:09:55.323Z,8.88
2022-11-02T11:12:30.744Z,9.38
2022-11-02T11:20:37.247Z,8.38
2022-11-02T11:23:21.336Z,6.40
2022-11-02T11:26:25.938Z,15.93
2022-11-02T11:28:55.001Z,8.50
2022-11-02T11:31:22.994Z,5.97
2022-11-02T11:33:58.390Z,7.28
2022-11-02T11:36:30.945Z,4.28
2022-11-02T11:39:04.985Z,8.70
2022-11-02T11:41:33.175Z,4.15
2022-11-02T11:44:02.949Z,7.00
2022-11-02T11:46:42.669Z,4.13
2022-11-02T11:50:02.812Z,2.85
2022-11-02T11:52:36.230Z,5.32
2022-11-02T11:55:20.940Z,5.82
2022-11-02T11:58:21.558Z,4.72
2022-11-02T12:01:09.342Z,3.47
2022-11-02T12:04:01.417Z,2.60
2022-11-02T12:06:39.277Z,3.65
2022-11-02T12:09:38.604Z,4.53
2022-11-02T12:12:17.510Z,5.63
2022-11-02T12:14:57.104Z,6.45
2022-11-02T12:17:42.960Z,19.38
2022-11-02T12:20:47.690Z,8.45
2022-11-02T12:23:22.457Z,5.60
2022-11-02T12:26:26.921Z,5.07
2022-11-02T12:29:11.707Z,8.82
2022-11-02T12:31:42.439Z,7.07
2022-11-02T12:34:25.812Z,7.80
2022-11-02T12:40:30.509Z,6.15
2022-11-02T12:43:03.772Z,6.82
2022-11-02T12:45:48.331Z,6.28
2022-11-02T12:48:34.592Z,11.88
2022-11-02T12:51:12.069Z,9.30
2022-11-02T12:53:58.064Z,5.72
2022-11-02T12:56:49.459Z,8.10
2022-11-02T12:59:29.234Z,30.23
2022-11-02T13:02:13.735Z,21.63
2022-11-02T13:04:52.412Z,11.77
2022-11-02T13:07:30.081Z,11.30
2022-11-02T13:10:06.130Z,7.88
2022-11-02T13:12:37.222Z,8.48
2022-11-02T13:15:11.009Z,10.52
2022-11-02T13:17:50.248Z,32.30
2022-11-02T13:20:22.121Z,12.77
2022-11-02T13:25:51.966Z,6.30
2022-11-02T13:28:30.977Z,6.80
2022-11-02T13:31:14.789Z,4.25
2022-11-02T13:33:51.386Z,3.38
2022-11-02T13:39:04.626Z,6.10
2022-11-02T13:42:09.122Z,2.97
2022-11-02T13:44:49.827Z,1.77
2022-11-02T13:47:41.472Z,3.13
2022-11-02T13:50:14.225Z,2.20
2022-11-02T13:52:44.532Z,4.68
2022-11-02T13:55:25.630Z,2.97
2022-11-02T13:57:59.401Z,4.13
2022-11-02T14:00:26.322Z,2.22
2022-11-02T14:03:12.000Z,3.45
2022-11-02T14:06:02.301Z,3.00
2022-11-02T14:08:42.654Z,3.00
2022-11-02T14:11:18.727Z,2.63
2022-11-02T14:13:52.134Z,6.30
2022-11-02T14:16:46.782Z,2.75
2022-11-02T14:19:51.818Z,5.18
2022-11-02T14:22:21.804Z,6.35
2022-11-02T14:24:49.567Z,5.88
2022-11-02T14:27:16.830Z,1.85
2022-11-02T14:29:46.764Z,5.60
2022-11-02T14:32:31.009Z,2.63
2022-11-02T14:35:09.002Z,4.38
2022-11-02T14:37:48.384Z,2.58
2022-11-02T14:40:59.574Z,2.95
2022-11-02T14:43:55.714Z,5.68
2022-11-02T14:46:45.942Z,6.50
2022-11-02T14:49:28.795Z,5.80
2022-11-02T14:52:03.931Z,7.38
2022-11-02T14:54:35.187Z,3.90
2022-11-02T14:57:23.633Z,9.18
2022-11-02T14:59:54.497Z,4.13
2022-11-02T15:02:28.465Z,3.60
2022-11-02T15:05:01.602Z,5.20
2022-11-02T15:07:48.593Z,3.92
2022-11-02T15:10:15.536Z,4.78
2022-11-02T15:12:47.796Z,4.97
2022-11-02T15:15:35.695Z,2.50
2022-11-02T15:18:27.724Z,3.58
2022-11-02T15:21:13.192Z,6.78
2022-11-02T15:23:40.134Z,5.25
2022-11-02T15:26:14.830Z,5.97
2022-11-02T15:28:44.938Z,7.97
2022-11-02T15:31:25.720Z,7.55
2022-11-02T15:34:02.582Z,7.20
2022-11-02T15:36:35.630Z,10.13
2022-11-02T15:39:09.195Z,10.05
2022-11-02T15:41:55.371Z,9.88
2022-11-02T15:44:38.282Z,12.40
2022-11-02T15:47:26.569Z,7.32
2022-11-02T15:50:34.187Z,9.73
2022-11-02T15:53:29.458Z,73.55
2022-11-02T15:56:08.518Z,34.15
2022-11-02T15:58:49.476Z,31.00
2022-11-02T16:01:24.762Z,42.42
2022-11-02T16:03:58.584Z,31.05
2022-11-02T16:06:28.803Z,41.00
2022-11-02T16:09:02.215Z,60.75
2022-11-02T16:11:29.339Z,50.35
2022-11-02T16:14:18.715Z,22.90
2022-11-02T16:16:47.671Z,24.50
2022-11-02T16:19:22.769Z,23.85
2022-11-02T16:21:50.611Z,13.65
2022-11-02T16:24:19.670Z,16.50
2022-11-02T16:26:48.683Z,23.73
2022-11-02T16:29:30.811Z,32.95
2022-11-02T16:34:32.306Z,20.85
2022-11-02T16:37:07.324Z,17.45
2022-11-02T16:39:39.853Z,15.90
2022-11-02T16:42:17.824Z,27.08
2022-11-02T16:45:01.465Z,14.70
2022-11-02T16:47:36.255Z,14.13
2022-11-02T16:50:04.480Z,13.60
2022-11-02T16:52:35.350Z,9.27
2022-11-02T16:55:23.188Z,12.95
2022-11-02T16:57:51.466Z,13.52
2022-11-02T17:00:19.950Z,11.18
2022-11-02T17:02:47.732Z,10.63
2022-11-02T17:05:19.818Z,15.18
2022-11-02T17:10:29.720Z,39.92
2022-11-02T17:12:58.007Z,50.50
2022-11-02T17:15:28.681Z,63.22
2022-11-02T17:18:09.256Z,37.67
2022-11-02T17:20:38.693Z,39.38
2022-11-02T17:23:28.370Z,13.25
2022-11-02T17:26:23.994Z,13.23
2022-11-02T17:28:53.243Z,15.25
2022-11-02T17:31:27.683Z,28.52
2022-11-02T17:33:56.815Z,79.47
2022-11-02T17:36:23.865Z,52.00
2022-11-02T17:38:51.119Z,29.42
2022-11-02T17:41:37.773Z,21.98
2022-11-02T17:44:09.977Z,39.35
2022-11-02T17:46:38.462Z,26.38
2022-11-02T17:49:07.377Z,24.98
2022-11-02T17:51:34.332Z,22.17
2022-11-02T17:54:01.260Z,21.88
2022-11-02T17:56:28.239Z,23.77
2022-11-02T17:58:55.125Z,52.30
2022-11-02T18:01:22.174Z,33.42
2022-11-02T18:03:49.217Z,35.50
2022-11-02T18:06:16.261Z,49.10
2022-11-02T18:09:01.872Z,31.20
2022-11-02T18:11:29.047Z,22.50
2022-11-02T18:13:56.293Z,16.67
2022-11-02T18:16:23.341Z,20.65
2022-11-02T18:18:50.359Z,17.10
2022-11-02T18:21:17.392Z,14.32
2022-11-02T18:23:44.859Z,35.20
2022-11-02T18:26:13.174Z,29.92
2022-11-02T18:28:40.682Z,20.40
2022-11-02T18:31:08.702Z,18.48
2022-11-02T18:33:35.628Z,15.50
2022-11-02T18:36:08.298Z,21.25
2022-11-02T18:38:36.255Z,17.08
2022-11-02T18:41:27.180Z,15.77
2022-11-02T18:44:02.110Z,38.92
2022-11-02T18:46:31.341Z,62.65
2022-11-02T18:48:58.794Z,50.55
2022-11-02T18:51:26.246Z,28.48
2022-11-02T18:54:04.717Z,43.75
2022-11-02T18:56:32.332Z,77.97
2022-11-02T18:58:59.330Z,68.13
2022-11-02T19:01:27.070Z,50.55
2022-11-02T19:03:59.260Z,17.58
2022-11-02T19:06:47.682Z,12.90
2022-11-02T19:09:18.727Z,21.50
2022-11-02T19:12:00.861Z,33.75
2022-11-02T19:14:32.585Z,30.95
2022-11-02T19:17:00.671Z,32.53
2022-11-02T19:19:27.903Z,25.20
2022-11-02T19:21:55.378Z,19.40
2022-11-02T19:24:24.227Z,24.98
2022-11-02T19:26:51.608Z,41.88
2022-11-02T19:29:19.569Z,46.03
2022-11-02T19:31:47.350Z,27.50
2022-11-02T19:34:14.571Z,31.63
2022-11-02T19:36:41.530Z,33.42
2022-11-02T19:39:10.063Z,27.35
2022-11-02T19:41:38.873Z,21.55
2022-11-02T19:44:06.833Z,16.30
2022-11-02T19:46:34.443Z,17.52
2022-11-02T19:49:01.595Z,17.30
2022-11-02T19:51:30.225Z,15.48
2022-11-02T19:54:00.319Z,19.08
2022-11-02T19:56:29.100Z,16.83
2022-11-02T19:58:57.045Z,18.40
2022-11-02T20:01:26.713Z,18.65
2022-11-02T20:03:55.103Z,16.42
2022-11-02T20:06:24.016Z,26.25
2022-11-02T20:08:52.312Z,21.23
2022-11-02T20:11:20.215Z,20.45
2022-11-02T20:13:48.129Z,15.65
2022-11-02T20:16:17.770Z,22.33
2022-11-02T20:18:46.577Z,12.73
2022-11-02T20:21:16.617Z,13.32
2022-11-02T20:23:44.605Z,19.33
2022-11-02T20:26:17.814Z,29.77
2022-11-02T20:28:47.826Z,18.38
2022-11-02T20:31:18.471Z,15.38
2022-11-02T20:33:46.620Z,14.13
2022-11-02T20:36:14.041Z,13.73
2022-11-02T20:38:41.636Z,13.25
2022-11-02T20:41:10.135Z,13.25
2022-11-02T20:43:39.044Z,14.30
2022-11-02T20:46:36.073Z,16.20
2022-11-02T20:49:08.898Z,19.05
2022-11-02T20:51:47.456Z,15.18
2022-11-02T20:54:14.465Z,17.40
2022-11-02T20:56:41.570Z,19.08
2022-11-02T20:59:08.492Z,16.02
2022-11-02T21:01:35.575Z,16.88
2022-11-02T21:04:03.200Z,16.38
2022-11-02T21:06:30.200Z,16.73
2022-11-02T21:08:59.589Z,11.10
2022-11-02T21:12:05.405Z,14.02
2022-11-02T21:14:32.965Z,20.92
2022-11-02T21:17:00.217Z,13.77
2022-11-02T21:19:27.165Z,15.68
2022-11-02T21:21:59.349Z,11.13
2022-11-02T21:24:27.637Z,18.52
2022-11-02T21:26:55.062Z,12.40
2022-11-02T21:29:22.062Z,11.20
2022-11-02T21:31:49.327Z,13.77
2022-11-02T21:34:16.463Z,17.25
2022-11-02T21:36:43.619Z,14.70
2022-11-02T21:39:10.665Z,18.40
2022-11-02T21:41:39.118Z,17.58
2022-11-02T21:44:07.379Z,10.52
2022-11-02T21:46:34.772Z,12.95
2022-11-02T21:49:01.682Z,11.43
2022-11-02T21:51:28.865Z,12.32
2022-11-02T21:53:56.956Z,10.73
2022-11-02T21:56:26.132Z,15.82
2022-11-02T21:58:54.736Z,15.73
2022-11-02T22:01:45.353Z,14.82
2022-11-02T22:04:13.734Z,17.33
2022-11-02T22:06:41.505Z,14.90
2022-11-02T22:09:12.342Z,16.30
2022-11-02T22:11:40.307Z,11.15
2022-11-02T22:14:07.408Z,11.77
2022-11-02T22:16:36.663Z,17.33
2022-11-02T22:19:12.226Z,24.35
2022-11-02T22:21:41.947Z,15.65
2022-11-02T22:24:09.816Z,16.80
2022-11-02T22:26:38.458Z,11.18
2022-11-02T22:29:06.065Z,14.23
2022-11-02T22:31:35.525Z,11.60
2022-11-02T22:34:04.581Z,14.55
2022-11-02T22:36:33.046Z,12.95
2022-11-02T22:39:03.306Z,11.80
2022-11-02T22:41:32.460Z,12.88
2022-11-02T22:44:05.195Z,7.95
2022-11-02T22:46:35.296Z,11.68
2022-11-02T22:49:05.096Z,16.10
2022-11-02T22:51:35.052Z,6.82
2022-11-02T22:54:04.685Z,11.18
2022-11-02T22:56:32.554Z,12.70
2022-11-02T22:59:00.289Z,8.93
2022-11-02T23:01:28.960Z,9.38
2022-11-02T23:03:56.427Z,9.02
2022-11-02T23:06:24.327Z,8.38
2022-11-02T23:08:53.749Z,8.57
2022-11-02T23:11:31.773Z,9.75
2022-11-02T23:14:06.709Z,8.90
2022-11-02T23:16:40.687Z,8.38
2022-11-02T23:19:31.863Z,9.57
2022-11-02T23:22:27.677Z,10.43
2022-11-02T23:25:12.593Z,7.30
2022-11-02T23:28:02.500Z,7.97
2022-11-02T23:30:50.816Z,9.40
2022-11-02T23:33:18.489Z,5.03
2022-11-02T23:36:04.360Z,11.80
2022-11-02T23:38:50.072Z,6.25
2022-11-02T23:41:18.599Z,5.95
2022-11-02T23:43:46.359Z,8.38
2022-11-02T23:46:13.781Z,8.82
2022-11-02T23:48:47.009Z,10.85
2022-11-02T23:51:35.385Z,7.95
2022-11-02T23:54:20.658Z,7.13
2022-11-02T23:56:47.620Z,7.68
2022-11-02T23:59:16.798Z,7.25
